Time;durP1;ratioP1;P1;durP2;ratioP2;P2;SDS_P1;SDS_P2;PMS_P1;PMS_P2;Temp;Humidity;BMP_temperature;BMP_pressure;BME280_temperature;BME280_humidity;BME280_pressure;Samples;Min_cycle;Max_cycle;Signal;HPM_P1;HPM_P2
2023/01/22 00:00:54;;;;;;;48.43;25.80;;;;;;;3.48;72.56;100965.59;5036749;27;100963;-82
2023/01/22 00:03:20;;;;;;;54.33;27.63;;;;;;;3.53;72.75;100977.72;5069693;27;97924;-81
2023/01/22 00:05:46;;;;;;;51.53;26.97;;;;;;;3.57;72.38;100983.81;5069965;27;97306;-82
2023/01/22 00:08:11;;;;;;;52.53;26.37;;;;;;;3.54;71.84;100976.88;5052508;27;97451;-82
2023/01/22 00:10:37;;;;;;;52.77;26.13;;;;;;;3.48;72.12;100973.38;5048806;27;101193;-82
2023/01/22 00:13:02;;;;;;;49.37;26.33;;;;;;;3.45;72.17;100969.03;5049795;27;101476;-81
2023/01/22 00:15:28;;;;;;;53.27;27.23;;;;;;;3.50;72.37;100972.53;5035937;27;96708;-82
2023/01/22 00:17:53;;;;;;;45.43;24.83;;;;;;;3.51;72.49;100974.25;5052950;27;97271;-82
2023/01/22 00:20:19;;;;;;;55.03;26.80;;;;;;;3.51;72.12;100987.22;5052788;27;101532;-81
2023/01/22 00:22:44;;;;;;;50.83;25.40;;;;;;;3.54;72.16;100989.84;5047912;27;101331;-82
2023/01/22 00:25:11;;;;;;;50.83;25.13;;;;;;;3.41;72.49;100969.88;5070180;27;96766;-82
2023/01/22 00:27:37;;;;;;;47.73;25.10;;;;;;;3.51;72.26;100984.63;5052904;27;96921;-82
2023/01/22 00:30:03;;;;;;;53.70;26.77;;;;;;;3.52;72.12;100986.41;5036001;27;101519;-81
2023/01/22 00:32:29;;;;;;;50.97;25.73;;;;;;;3.51;72.09;100973.41;5031858;27;101722;-81
2023/01/22 00:34:55;;;;;;;50.57;26.57;;;;;;;3.58;72.27;100990.75;5042074;27;97337;-81
2023/01/22 00:37:20;;;;;;;53.13;26.70;;;;;;;3.56;71.82;100985.53;5050044;27;97469;-81
2023/01/22 00:39:46;;;;;;;47.67;24.33;;;;;;;3.62;71.86;101003.75;5031495;27;101302;-81
2023/01/22 00:42:12;;;;;;;50.33;25.20;;;;;;;3.60;71.88;101002.84;5051170;27;100911;-81
2023/01/22 00:44:37;;;;;;;46.80;23.97;;;;;;;3.52;71.81;100993.28;5052468;27;97304;-82
2023/01/22 00:47:03;;;;;;;48.60;25.10;;;;;;;3.48;71.97;100997.59;5052893;27;97534;-81
2023/01/22 00:49:28;;;;;;;52.37;26.47;;;;;;;3.49;71.76;101003.66;5086038;27;98350;-81
2023/01/22 00:51:54;;;;;;;48.33;26.13;;;;;;;3.48;71.97;101013.19;5063459;27;97845;-81
2023/01/22 00:54:19;;;;;;;51.73;26.00;;;;;;;3.50;71.99;101019.25;5051653;27;97095;-81
2023/01/22 00:56:45;;;;;;;45.43;25.67;;;;;;;3.36;71.74;100984.56;5052067;27;97500;-81
2023/01/22 00:59:11;;;;;;;48.70;26.13;;;;;;;3.49;72.20;101006.25;5035274;27;101538;-81
2023/01/22 01:01:38;;;;;;;48.97;26.70;;;;;;;3.52;71.61;101011.47;5034882;27;101083;-81
2023/01/22 01:04:04;;;;;;;49.23;25.93;;;;;;;3.43;71.52;100996.69;5069336;27;97794;-81
2023/01/22 01:06:31;;;;;;;49.87;25.67;;;;;;;3.42;71.51;101022.66;5051831;27;97419;-81
2023/01/22 01:08:56;;;;;;;47.77;27.20;;;;;;;3.40;71.44;101015.75;5068839;27;97402;-81
2023/01/22 01:11:24;;;;;;;55.03;28.73;;;;;;;3.30;72.01;101003.56;5051669;27;100997;-82
2023/01/22 01:13:51;;;;;;;50.43;26.07;;;;;;;3.47;72.04;101039.16;5048588;27;96817;-82
2023/01/22 01:16:20;;;;;;;47.27;27.83;;;;;;;3.36;71.46;101016.56;5035972;27;96987;-81
2023/01/22 01:18:46;;;;;;;45.87;24.73;;;;;;;3.43;71.68;101025.25;5047698;27;101552;-81
2023/01/22 01:21:12;;;;;;;47.27;26.40;;;;;;;3.45;71.85;101033.06;5051982;27;98209;-82
2023/01/22 01:23:38;;;;;;;52.50;26.60;;;;;;;3.41;71.42;101034.78;5067473;27;97407;-81
2023/01/22 01:26:08;;;;;;;47.50;26.53;;;;;;;3.49;71.50;101045.19;5068989;27;96933;-81
2023/01/22 01:28:35;;;;;;;49.70;26.53;;;;;;;3.50;71.48;101042.63;5051002;27;101013;-81
2023/01/22 01:31:05;;;;;;;45.50;25.73;;;;;;;3.49;71.42;101053.88;5052249;27;97850;-81
2023/01/22 01:33:31;;;;;;;45.27;26.87;;;;;;;3.51;71.44;101048.69;5048372;27;97328;-81
2023/01/22 01:35:59;;;;;;;51.93;28.23;;;;;;;3.49;71.25;101050.38;5041419;27;97211;-82
2023/01/22 01:38:24;;;;;;;46.43;27.43;;;;;;;3.48;71.45;101048.66;5033923;27;101590;-81
2023/01/22 01:40:50;;;;;;;49.10;27.17;;;;;;;3.38;71.49;101043.41;5051868;27;98414;-82
2023/01/22 01:43:16;;;;;;;51.30;27.47;;;;;;;3.45;71.31;101046.91;5073706;27;97021;-82
2023/01/22 01:45:42;;;;;;;45.70;26.27;;;;;;;3.47;71.32;101053.00;5065821;27;97336;-81
2023/01/22 01:48:38;;;;;;;53.23;27.67;;;;;;;3.47;71.19;101050.38;5044119;27;100872;-82
2023/01/22 01:51:10;;;;;;;50.43;28.30;;;;;;;3.48;71.05;101049.53;5046168;27;100274;-82
2023/01/22 01:53:36;;;;;;;46.70;26.80;;;;;;;3.29;71.05;101013.94;5053859;27;97553;-82
2023/01/22 01:56:05;;;;;;;43.77;25.33;;;;;;;3.55;70.92;101064.28;5038390;27;97014;-81
2023/01/22 01:58:32;;;;;;;43.70;25.53;;;;;;;3.51;70.83;101057.31;5054123;27;101439;-81
2023/01/22 02:01:08;;;;;;;48.20;27.00;;;;;;;3.42;70.91;101040.84;5051282;27;101261;-82
2023/01/22 02:03:33;;;;;;;43.77;26.30;;;;;;;3.48;70.79;101067.69;5033961;27;96953;-81
2023/01/22 02:05:59;;;;;;;47.50;26.80;;;;;;;3.49;71.24;101063.38;5038359;27;96838;-81
2023/01/22 02:08:24;;;;;;;46.10;25.77;;;;;;;3.45;71.03;101064.22;5054270;27;100305;-84
2023/01/22 02:10:50;;;;;;;44.50;25.57;;;;;;;3.35;70.97;101058.97;5053739;27;101094;-84
2023/01/22 02:13:23;;;;;;;45.87;26.57;;;;;;;3.43;71.01;101071.09;5044233;27;97497;-84
2023/01/22 02:15:49;;;;;;;50.00;27.43;;;;;;;3.43;70.72;101069.38;5050856;27;96776;-84
2023/01/22 02:18:14;;;;;;;45.63;26.23;;;;;;;3.38;71.10;101068.50;5059833;27;98567;-84
2023/01/22 02:20:50;;;;;;;38.80;24.50;;;;;;;3.43;70.81;101073.72;5033681;27;101480;-82
2023/01/22 02:23:16;;;;;;;40.43;25.20;;;;;;;3.46;70.77;101079.81;5037623;27;97412;-81
2023/01/22 02:25:41;;;;;;;47.80;26.77;;;;;;;3.45;70.99;101078.06;5071037;27;97601;-81
2023/01/22 02:28:10;;;;;;;40.73;25.80;;;;;;;3.34;70.72;101057.22;5055111;27;101071;-81
2023/01/22 02:30:35;;;;;;;44.07;25.83;;;;;;;3.51;70.72;101083.28;5037511;27;100877;-81
2023/01/22 02:33:01;;;;;;;49.80;27.57;;;;;;;3.44;70.48;101072.88;5037362;27;97243;-81
2023/01/22 02:35:26;;;;;;;49.20;27.77;;;;;;;3.43;70.19;101073.72;5071789;27;97152;-81
2023/01/22 02:37:52;;;;;;;45.57;27.70;;;;;;;3.49;70.23;101085.03;5052996;27;101139;-81
2023/01/22 02:40:18;;;;;;;43.90;26.37;;;;;;;3.41;70.28;101071.13;5054506;27;101168;-81
2023/01/22 02:42:43;;;;;;;42.77;26.73;;;;;;;3.53;70.71;101086.78;5036381;27;97281;-81
2023/01/22 02:45:10;;;;;;;45.00;27.27;;;;;;;3.50;70.52;101081.56;5055200;27;97239;-81
2023/01/22 02:47:36;;;;;;;42.47;26.23;;;;;;;3.48;70.62;101085.00;5030603;27;101532;-81
2023/01/22 02:50:02;;;;;;;40.70;26.13;;;;;;;3.50;70.45;101088.47;5054731;27;98085;-82
2023/01/22 02:52:29;;;;;;;47.17;27.30;;;;;;;3.48;70.46;101091.06;5036461;27;97914;-81
2023/01/22 02:54:55;;;;;;;47.97;27.90;;;;;;;3.53;70.52;101096.28;5054481;27;97243;-83
2023/01/22 02:57:21;;;;;;;40.33;25.67;;;;;;;3.53;70.45;101091.09;5054215;27;97425;-84
2023/01/22 02:59:47;;;;;;;41.30;25.07;;;;;;;3.48;70.35;101088.47;5053287;27;101392;-82
2023/01/22 03:02:12;;;;;;;40.80;25.60;;;;;;;3.54;70.09;101093.69;5053913;27;97163;-81
2023/01/22 03:04:38;;;;;;;44.77;26.17;;;;;;;3.32;69.97;101058.94;5053299;27;97353;-82
2023/01/22 03:07:04;;;;;;;42.97;25.63;;;;;;;3.52;69.93;101085.03;5053851;27;101642;-81
2023/01/22 03:09:30;;;;;;;43.57;25.27;;;;;;;3.46;69.99;101077.22;5064077;27;101187;-82
2023/01/22 03:11:56;;;;;;;41.23;25.53;;;;;;;3.58;69.99;101102.41;5043844;27;97349;-82
2023/01/22 03:22:41;;;;;;;45.63;26.17;;;;;;;3.46;69.94;101102.28;5067254;27;97231;-82
2023/01/22 03:25:07;;;;;;;43.63;26.73;;;;;;;3.47;70.04;101093.66;5053547;27;97173;-82
2023/01/22 03:27:33;;;;;;;42.97;25.93;;;;;;;3.46;70.26;101107.47;5035114;27;101521;-82
2023/01/22 03:29:58;;;;;;;43.07;24.83;;;;;;;3.47;70.30;101107.50;5036786;27;101189;-82
2023/01/22 03:32:25;;;;;;;49.50;27.23;;;;;;;3.39;70.17;101091.00;5053000;27;97220;-82
2023/01/22 03:34:50;;;;;;;45.20;27.50;;;;;;;3.50;70.12;101102.34;5036280;27;97306;-81
2023/01/22 03:37:16;;;;;;;44.33;25.53;;;;;;;3.51;69.89;101098.00;5069999;27;101534;-82
2023/01/22 03:39:44;;;;;;;44.00;26.33;;;;;;;3.36;70.32;101078.84;5036484;27;101617;-81
2023/01/22 03:42:17;;;;;;;42.47;25.70;;;;;;;3.53;70.05;101104.94;5053336;27;96761;-82
2023/01/22 03:44:43;;;;;;;49.20;27.80;;;;;;;3.34;70.23;101085.75;5053873;27;97389;-81
2023/01/22 03:47:09;;;;;;;51.17;27.53;;;;;;;3.49;70.43;101108.38;5062395;27;101192;-81
2023/01/22 03:49:34;;;;;;;44.97;26.97;;;;;;;3.49;70.21;101117.88;5053336;27;98357;-81
2023/01/22 03:52:03;;;;;;;44.97;27.33;;;;;;;3.53;70.32;101107.53;5030303;27;96854;-81
2023/01/22 03:54:28;;;;;;;47.73;28.03;;;;;;;3.52;69.80;101115.31;5035435;27;97974;-81
2023/01/22 03:56:56;;;;;;;48.73;28.07;;;;;;;3.51;70.19;101114.44;5049939;27;102000;-81
2023/01/22 03:59:27;;;;;;;45.70;27.02;;;;;;;3.50;70.20;101120.50;5052199;27;99591;-81
2023/01/22 04:01:53;;;;;;;45.00;26.93;;;;;;;3.39;70.14;101091.00;5036222;27;96714;-81
2023/01/22 04:04:20;;;;;;;48.33;28.20;;;;;;;3.49;70.23;101110.97;5052012;27;96857;-81
2023/01/22 04:06:46;;;;;;;43.50;27.27;;;;;;;3.29;70.30;101084.88;5069546;27;101075;-82
2023/01/22 04:09:13;;;;;;;48.43;27.73;;;;;;;3.42;70.35;101106.59;5052438;27;101616;-81
2023/01/22 04:11:45;;;;;;;50.90;29.07;;;;;;;3.47;70.16;101124.81;5034089;27;96919;-82
2023/01/22 04:14:11;;;;;;;41.50;27.30;;;;;;;3.44;70.24;101127.38;5048663;27;97278;-81
2023/01/22 04:16:42;;;;;;;47.43;27.97;;;;;;;3.46;70.45;101142.13;5036727;27;97630;-81
2023/01/22 04:19:28;;;;;;;49.17;28.13;;;;;;;3.40;70.16;101121.28;5057648;27;101954;-81
2023/01/22 04:22:02;;;;;;;43.50;27.07;;;;;;;3.50;70.48;101132.63;5051361;27;98126;-81
2023/01/22 04:24:30;;;;;;;45.97;27.47;;;;;;;3.53;70.11;101138.69;5035980;27;97538;-80
2023/01/22 04:26:57;;;;;;;44.67;25.67;;;;;;;3.51;70.12;101130.00;5052707;27;99412;-81
2023/01/22 04:29:23;;;;;;;43.67;25.27;;;;;;;3.50;70.02;101127.44;5035701;27;101376;-81
2023/01/22 04:31:49;;;;;;;40.37;24.00;;;;;;;3.55;69.84;101124.00;5035552;27;96807;-81
2023/01/22 04:34:17;;;;;;;38.63;24.57;;;;;;;3.57;69.94;101131.78;5053138;27;97295;-81
2023/01/22 04:37:03;;;;;;;45.67;25.90;;;;;;;3.57;70.05;101139.59;5068587;27;99187;-81
2023/01/22 04:39:31;;;;;;;41.63;26.57;;;;;;;3.54;69.49;101124.84;5035352;27;100619;-81
2023/01/22 04:41:57;;;;;;;40.30;24.73;;;;;;;3.56;69.39;101130.94;5051888;27;96791;-81
2023/01/22 04:44:22;;;;;;;40.63;24.23;;;;;;;3.38;69.55;101105.69;5051961;27;97044;-82
2023/01/22 04:46:48;;;;;;;45.47;26.03;;;;;;;3.52;69.85;101121.38;5034834;27;101391;-81
2023/01/22 04:49:13;;;;;;;43.80;25.03;;;;;;;3.54;69.50;101126.56;5057863;27;100796;-81
2023/01/22 04:51:40;;;;;;;39.63;23.67;;;;;;;3.42;69.40;101111.78;5051934;27;97514;-81
2023/01/22 04:54:06;;;;;;;38.63;24.00;;;;;;;3.54;69.52;101129.19;5051884;27;97154;-81
2023/01/22 04:56:31;;;;;;;39.07;22.77;;;;;;;3.54;69.29;101127.44;5051925;27;100486;-81
2023/01/22 04:58:57;;;;;;;38.93;22.77;;;;;;;3.45;69.18;101113.53;5051612;27;101178;-81
2023/01/22 05:01:24;;;;;;;39.77;23.83;;;;;;;3.55;68.89;101136.09;5049550;27;96756;-81
2023/01/22 05:03:50;;;;;;;40.63;24.17;;;;;;;3.58;68.78;101136.16;5043949;27;97263;-80
2023/01/22 05:06:15;;;;;;;37.77;22.80;;;;;;;3.53;68.95;101133.50;5051727;27;101311;-81
2023/01/22 05:08:41;;;;;;;36.70;22.57;;;;;;;3.52;68.80;101149.94;5068199;27;97816;-81
2023/01/22 05:11:08;;;;;;;37.73;21.57;;;;;;;3.50;68.58;101155.97;5052774;27;97552;-81
2023/01/22 05:13:45;;;;;;;38.27;21.67;;;;;;;3.51;68.84;101155.97;5053230;27;97186;-81
2023/01/22 05:16:11;;;;;;;33.97;20.87;;;;;;;3.51;68.66;101162.91;5070403;27;98205;-81
2023/01/22 05:18:37;;;;;;;35.67;21.03;;;;;;;3.45;68.64;101168.03;5071992;27;101286;-81
2023/01/22 05:21:02;;;;;;;31.23;20.00;;;;;;;3.46;68.30;101167.19;5052293;27;97352;-81
2023/01/22 05:23:30;;;;;;;36.13;21.43;;;;;;;3.32;68.59;101146.31;5054894;27;97787;-81
2023/01/22 05:25:56;;;;;;;38.17;21.17;;;;;;;3.38;68.68;101164.53;5051396;27;101502;-81
2023/01/22 05:28:34;;;;;;;34.30;21.50;;;;;;;3.40;68.42;101181.88;5056066;27;99368;-81
2023/01/22 05:31:09;;;;;;;36.77;22.00;;;;;;;3.30;68.17;101174.84;5040851;27;97135;-81
2023/01/22 05:33:48;;;;;;;34.40;21.47;;;;;;;3.36;68.44;101184.41;5055557;27;97372;-81
2023/01/22 05:36:14;;;;;;;35.03;20.57;;;;;;;3.39;68.76;101198.28;5058261;27;101501;-81
2023/01/22 05:38:41;;;;;;;33.00;20.40;;;;;;;3.36;68.64;101190.47;5054208;27;101290;-81
2023/01/22 05:41:07;;;;;;;31.67;19.17;;;;;;;3.38;68.38;101208.66;5055979;27;97179;-81
2023/01/22 05:43:37;;;;;;;29.33;18.17;;;;;;;3.40;68.67;101205.22;5055053;27;96838;-81
2023/01/22 05:46:04;;;;;;;30.47;19.07;;;;;;;3.39;68.33;101211.25;5038770;27;102114;-81
2023/01/22 05:48:48;;;;;;;28.17;18.03;;;;;;;3.35;68.24;101206.91;5060728;27;101160;-81
2023/01/22 05:51:20;;;;;;;27.70;16.70;;;;;;;3.39;68.47;101202.59;5057073;27;97358;-82
2023/01/22 05:53:46;;;;;;;26.30;16.50;;;;;;;3.34;67.75;101199.94;5043598;27;97251;-81
2023/01/22 05:56:13;;;;;;;31.60;16.60;;;;;;;3.27;67.48;101190.38;5054292;27;100259;-81
2023/01/22 05:58:39;;;;;;;25.93;15.90;;;;;;;3.27;67.33;101186.91;5054552;27;101204;-81
2023/01/22 06:01:05;;;;;;;23.03;14.93;;;;;;;3.26;67.42;101179.97;5055310;27;97429;-81
2023/01/22 06:03:38;;;;;;;18.33;13.03;;;;;;;3.31;66.94;101201.66;5041538;27;97426;-81
2023/01/22 06:06:08;;;;;;;18.53;12.53;;;;;;;3.33;66.70;101205.13;5038025;27;101077;-81
2023/01/22 06:08:34;;;;;;;17.97;11.83;;;;;;;3.29;66.45;101186.09;5053514;27;101807;-81
2023/01/22 06:11:01;;;;;;;17.67;10.07;;;;;;;3.38;65.93;101203.47;5037263;27;96790;-81
2023/01/22 06:13:27;;;;;;;17.37;10.47;;;;;;;3.42;65.85;101206.97;5072076;27;96930;-81
2023/01/22 06:15:57;;;;;;;15.97;9.97;;;;;;;3.36;65.60;101198.25;5071389;27;100748;-81
2023/01/22 06:18:43;;;;;;;13.50;9.00;;;;;;;3.36;65.35;101195.66;5057978;27;97535;-81
2023/01/22 06:21:11;;;;;;;13.40;9.20;;;;;;;3.38;65.54;101206.94;5051304;27;97419;-80
2023/01/22 06:23:36;;;;;;;12.93;8.70;;;;;;;3.39;64.96;101195.69;5070456;27;96900;-81
2023/01/22 06:26:04;;;;;;;13.10;8.30;;;;;;;3.29;64.54;101183.50;5053057;27;101297;-81
2023/01/22 06:28:30;;;;;;;11.03;6.80;;;;;;;3.27;64.43;101184.31;5053430;27;101034;-81
2023/01/22 06:31:01;;;;;;;9.03;6.87;;;;;;;3.31;63.95;101205.13;5054623;27;97256;-81
2023/01/22 06:33:26;;;;;;;14.13;7.40;;;;;;;3.36;64.20;101216.41;5050123;27;97208;-81
2023/01/22 06:35:55;;;;;;;10.63;7.10;;;;;;;3.36;64.29;101221.59;5049864;27;97930;-81
2023/01/22 06:38:23;;;;;;;12.73;8.27;;;;;;;3.36;64.64;101228.53;5051392;27;101259;-81
2023/01/22 06:40:56;;;;;;;11.20;8.13;;;;;;;3.36;64.61;101236.31;5036992;27;97204;-80
2023/01/22 06:43:23;;;;;;;13.90;8.27;;;;;;;3.36;64.74;101236.31;5052953;27;96898;-81
2023/01/22 06:45:50;;;;;;;10.27;7.97;;;;;;;3.36;64.68;101229.41;5053305;27;101814;-81
2023/01/22 06:48:18;;;;;;;14.23;8.60;;;;;;;3.39;64.75;101228.56;5054782;27;101739;-81
2023/01/22 06:50:43;;;;;;;11.97;8.27;;;;;;;3.37;64.69;101225.97;5053847;27;96919;-81
2023/01/22 06:53:09;;;;;;;13.00;8.43;;;;;;;3.42;64.36;101232.91;5071203;27;97254;-81
2023/01/22 06:55:35;;;;;;;12.80;8.60;;;;;;;3.32;64.59;101218.97;5036399;27;101393;-81
2023/01/22 06:58:01;;;;;;;12.20;8.00;;;;;;;3.42;64.92;101228.59;5036898;27;101842;-81
2023/01/22 07:00:26;;;;;;;13.33;8.47;;;;;;;3.48;64.65;101230.38;5072945;27;96862;-80
2023/01/22 07:02:53;;;;;;;11.07;8.43;;;;;;;3.52;64.61;101239.91;5052864;27;97344;-81
2023/01/22 07:05:19;;;;;;;12.40;8.50;;;;;;;3.56;64.57;101252.97;5037312;27;101107;-81
2023/01/22 07:07:46;;;;;;;12.43;9.00;;;;;;;3.56;64.38;101252.09;5035970;27;100907;-81
2023/01/22 07:10:12;;;;;;;11.30;8.33;;;;;;;3.54;64.70;101251.19;5053719;27;96884;-81
2023/01/22 07:12:38;;;;;;;12.13;9.27;;;;;;;3.55;64.56;101253.81;5063474;27;97327;-81
2023/01/22 07:15:05;;;;;;;13.77;9.43;;;;;;;3.54;64.01;101256.38;5041723;27;101604;-81
2023/01/22 07:17:31;;;;;;;14.80;9.93;;;;;;;3.51;64.11;101253.75;5052972;27;97648;-81
2023/01/22 07:19:57;;;;;;;15.37;10.37;;;;;;;3.55;63.99;101271.09;5037117;27;96746;-83
2023/01/22 07:22:22;;;;;;;14.27;9.50;;;;;;;3.57;64.28;101277.19;5050522;27;96861;-81
2023/01/22 07:24:48;;;;;;;15.07;10.43;;;;;;;3.55;64.59;101269.41;5053457;27;98039;-81
2023/01/22 07:27:14;;;;;;;13.10;9.43;;;;;;;3.62;64.55;101267.72;5035931;27;100673;-81
2023/01/22 07:29:39;;;;;;;14.07;10.47;;;;;;;3.54;64.72;101257.25;5046913;27;97377;-81
2023/01/22 07:32:05;;;;;;;16.57;12.07;;;;;;;3.54;64.62;101262.44;5067230;27;98649;-81
2023/01/22 07:34:30;;;;;;;16.80;12.30;;;;;;;3.54;64.81;101257.25;5032847;27;101407;-81
2023/01/22 07:36:56;;;;;;;20.10;13.90;;;;;;;3.66;65.09;101285.06;5039939;27;101405;-81
2023/01/22 07:39:21;;;;;;;20.90;13.83;;;;;;;3.61;65.06;101273.78;5049415;27;96863;-81
2023/01/22 07:41:47;;;;;;;20.80;14.13;;;;;;;3.67;64.97;101298.94;5052776;27;96842;-81
2023/01/22 07:44:12;;;;;;;21.67;14.93;;;;;;;3.60;65.24;101285.00;5069259;27;97735;-81
2023/01/22 07:46:38;;;;;;;22.67;16.17;;;;;;;3.59;65.53;101291.94;5067325;27;97944;-81
2023/01/22 07:49:05;;;;;;;26.30;16.87;;;;;;;3.64;65.69;101299.78;5069149;27;97290;-81
2023/01/22 07:51:30;;;;;;;29.43;18.60;;;;;;;3.62;66.17;101299.75;5049621;27;97127;-81
2023/01/22 07:53:56;;;;;;;29.37;18.30;;;;;;;3.63;66.23;101308.41;5051766;27;101423;-81
2023/01/22 07:56:22;;;;;;;29.67;19.60;;;;;;;3.54;66.92;101305.72;5037940;27;100992;-81
2023/01/22 07:58:47;;;;;;;32.43;19.90;;;;;;;3.42;66.70;101290.88;5052514;27;97957;-82
2023/01/22 08:01:13;;;;;;;30.80;19.77;;;;;;;3.55;66.88;101317.84;5049137;27;96948;-82
2023/01/22 08:03:39;;;;;;;32.93;20.23;;;;;;;3.56;67.06;101317.88;5051448;27;101669;-81
2023/01/22 08:06:08;;;;;;;32.47;20.27;;;;;;;3.61;67.28;101315.34;5032612;27;101262;-81
2023/01/22 08:08:34;;;;;;;29.93;19.97;;;;;;;3.64;67.23;101307.56;5069653;27;97036;-81
2023/01/22 08:10:59;;;;;;;31.83;21.13;;;;;;;3.65;67.25;101292.84;5057262;27;97012;-81
2023/01/22 08:13:25;;;;;;;35.07;21.10;;;;;;;3.69;67.24;101302.41;5052472;27;101234;-81
2023/01/22 08:15:51;;;;;;;29.13;19.43;;;;;;;3.61;67.26;101291.97;5052509;27;100936;-81
2023/01/22 08:18:16;;;;;;;35.43;20.30;;;;;;;3.70;67.39;101307.63;5053776;27;97030;-81
2023/01/22 08:20:42;;;;;;;32.67;20.47;;;;;;;3.52;67.21;101277.16;5049077;27;96925;-81
2023/01/22 08:23:07;;;;;;;30.70;19.87;;;;;;;3.75;67.06;101307.66;5052075;27;101606;-82
2023/01/22 08:25:33;;;;;;;31.47;19.87;;;;;;;3.68;67.07;101288.56;5053548;27;98023;-82
2023/01/22 08:28:03;;;;;;;31.53;19.97;;;;;;;3.71;67.12;101308.50;5069667;27;96799;-82
2023/01/22 08:30:30;;;;;;;34.57;20.57;;;;;;;3.62;67.22;101301.47;5053217;27;97102;-82
2023/01/22 08:32:56;;;;;;;29.83;19.53;;;;;;;3.69;67.18;101316.25;5035200;27;101845;-82
2023/01/22 08:35:21;;;;;;;32.77;19.63;;;;;;;3.67;67.18;101324.91;5052844;27;101511;-82
2023/01/22 08:37:47;;;;;;;29.93;18.80;;;;;;;3.66;66.90;101328.34;5035776;27;97124;-81
2023/01/22 08:40:14;;;;;;;30.37;18.80;;;;;;;3.63;66.89;101318.78;5054274;27;96962;-81
2023/01/22 08:42:40;;;;;;;32.13;18.83;;;;;;;3.62;67.16;101314.47;5031736;27;100023;-80
2023/01/22 08:45:06;;;;;;;28.73;18.70;;;;;;;3.55;66.64;101320.44;5053623;27;97947;-80
2023/01/22 08:47:32;;;;;;;28.63;17.63;;;;;;;3.57;67.38;101318.72;5035641;27;98139;-80
2023/01/22 08:49:58;;;;;;;27.50;17.47;;;;;;;3.61;66.88;101328.31;5070001;27;96791;-80
2023/01/22 08:52:23;;;;;;;27.97;16.87;;;;;;;3.63;67.09;101337.84;5035940;27;101278;-80
2023/01/22 08:54:49;;;;;;;28.77;17.17;;;;;;;3.66;67.13;101342.19;5052604;27;98397;-81
2023/01/22 08:57:14;;;;;;;28.40;16.30;;;;;;;3.67;66.76;101341.34;5070244;27;97091;-80
2023/01/22 08:59:40;;;;;;;28.00;15.77;;;;;;;3.68;67.09;101343.09;5069245;27;97089;-80
2023/01/22 09:02:05;;;;;;;25.67;15.43;;;;;;;3.69;66.92;101338.75;5049517;27;98120;-80
2023/01/22 09:04:31;;;;;;;26.30;16.17;;;;;;;3.63;66.77;101342.16;5050064;27;101459;-80
2023/01/22 10:18:49;;;;;;;28.10;19.47;;;;;;;3.26;70.34;101365.13;5083143;27;97294;-77
2023/01/22 10:21:14;;;;;;;26.33;16.40;;;;;;;3.25;70.67;101368.53;5048800;27;97518;-79
2023/01/22 10:23:40;;;;;;;27.40;16.60;;;;;;;3.22;70.74;101363.31;5048356;27;101633;-77
2023/01/22 10:26:24;;;;;;;26.47;16.00;;;;;;;3.20;70.67;101358.97;5033837;27;101665;-77
2023/01/22 10:28:57;;;;;;;27.93;16.03;;;;;;;3.25;70.86;101352.97;5017344;27;96780;-77
2023/01/22 10:31:27;;;;;;;25.73;15.60;;;;;;;3.30;70.60;101356.50;5025113;27;97813;-77
2023/01/22 10:33:57;;;;;;;25.77;14.93;;;;;;;3.32;70.59;101347.03;5036334;27;97547;-78
2023/01/22 10:36:23;;;;;;;25.07;14.67;;;;;;;3.36;70.50;101341.00;5032494;27;98513;-78
2023/01/22 10:38:49;;;;;;;23.13;14.60;;;;;;;3.34;70.33;101344.44;5017371;27;96796;-77
2023/01/22 10:41:19;;;;;;;26.80;15.27;;;;;;;3.44;70.36;101369.66;5017140;27;96938;-78
2023/01/22 10:43:47;;;;;;;21.33;14.20;;;;;;;3.45;69.92;101363.59;5036090;27;101374;-78
2023/01/22 10:46:22;;;;;;;25.87;16.43;;;;;;;3.47;70.23;101374.88;5033493;27;101853;-79
2023/01/22 10:49:04;;;;;;;23.17;14.23;;;;;;;3.40;70.44;101371.34;5034324;27;97383;-79
2023/01/22 10:51:34;;;;;;;25.10;15.95;;;;;;;3.44;70.54;101373.97;5016426;27;97046;-77
2023/01/22 10:54:00;;;;;;;24.50;14.30;;;;;;;3.43;70.29;101364.44;5014970;27;101979;-78
2023/01/22 10:56:38;;;;;;;22.40;14.10;;;;;;;3.47;70.39;101366.22;5014589;27;101474;-78
2023/01/22 10:59:21;;;;;;;22.57;13.83;;;;;;;3.42;70.23;101358.38;5034869;27;96768;-78
2023/01/22 11:01:48;;;;;;;21.47;12.97;;;;;;;3.42;70.21;101357.50;5012782;27;97476;-82
2023/01/22 11:04:20;;;;;;;22.87;14.10;;;;;;;3.46;70.50;101372.25;5016814;27;100827;-82
2023/01/22 11:06:57;;;;;;;23.63;14.70;;;;;;;3.47;70.37;101379.22;5020786;27;101244;-81
2023/01/22 11:09:24;;;;;;;19.07;13.33;;;;;;;3.37;70.68;101349.66;5033584;27;96789;-80
2023/01/22 11:12:11;;;;;;;18.13;12.77;;;;;;;3.48;70.82;101374.03;5028865;27;97278;-79
2023/01/22 11:14:37;;;;;;;19.27;12.63;;;;;;;3.52;70.47;101380.09;5038911;27;97954;-78
2023/01/22 11:17:20;;;;;;;21.97;12.53;;;;;;;3.49;70.45;101383.56;5025144;28;97507;-79
2023/01/22 11:20:00;;;;;;;21.13;12.47;;;;;;;3.47;70.23;101377.47;5029489;28;96858;-79
2023/01/22 11:22:37;;;;;;;20.90;12.17;;;;;;;3.52;70.17;101390.50;4996835;28;97374;-79
2023/01/22 11:25:08;;;;;;;20.80;13.33;;;;;;;3.42;70.49;101393.84;4999820;28;101738;-78
2023/01/22 11:28:11;;;;;;;19.53;12.70;;;;;;;3.44;70.38;101379.19;5011955;28;100935;-79
2023/01/22 11:30:50;;;;;;;19.50;12.87;;;;;;;3.46;70.81;101373.16;4964918;28;97333;-78
2023/01/22 11:33:16;;;;;;;20.63;13.13;;;;;;;3.47;70.20;101381.81;5017862;28;97258;-79
2023/01/22 11:35:57;;;;;;;19.30;12.83;;;;;;;3.16;70.69;101342.50;5031806;28;97783;-79
2023/01/22 11:38:50;;;;;;;23.93;13.90;;;;;;;3.41;70.76;101377.41;5009942;28;100578;-80
2023/01/22 11:41:30;;;;;;;19.07;12.40;;;;;;;3.40;70.93;101379.13;4997996;28;97299;-79
2023/01/22 11:44:28;;;;;;;18.60;12.37;;;;;;;3.39;70.73;101379.09;5010218;28;97352;-79
2023/01/22 11:47:28;;;;;;;20.40;11.97;;;;;;;3.42;70.66;101363.56;4992408;28;101712;-80
2023/01/22 11:50:22;;;;;;;19.70;11.67;;;;;;;3.46;70.67;101362.78;5004549;28;101442;-80
2023/01/22 11:53:18;;;;;;;17.57;11.67;;;;;;;3.50;70.51;101361.06;5029466;27;97310;-80
2023/01/22 11:55:59;;;;;;;20.93;11.33;;;;;;;3.50;70.72;101351.56;5000176;28;97356;-76
2023/01/22 11:58:50;;;;;;;19.27;12.50;;;;;;;3.55;70.19;101357.69;5014095;27;101462;-75
2023/01/22 12:01:15;;;;;;;16.37;10.80;;;;;;;3.59;70.15;101343.84;5007725;28;101180;-76
2023/01/22 12:04:09;;;;;;;16.33;10.97;;;;;;;3.62;70.07;101341.28;4996004;28;97171;-79
2023/01/22 12:06:49;;;;;;;16.17;10.23;;;;;;;3.67;70.09;101337.91;5011899;28;97333;-78
2023/01/22 12:09:23;;;;;;;17.13;10.67;;;;;;;3.59;69.77;101323.09;5013882;28;101755;-78
2023/01/22 12:12:20;;;;;;;18.10;11.10;;;;;;;3.69;69.44;101344.81;5012165;28;98664;-78
2023/01/22 12:15:21;;;;;;;15.90;10.40;;;;;;;3.71;69.51;101337.91;5013155;28;97314;-78
2023/01/22 12:18:01;;;;;;;14.33;10.17;;;;;;;3.75;69.74;101341.41;4969209;28;97279;-78
2023/01/22 12:21:09;;;;;;;14.93;10.30;;;;;;;3.78;69.55;101341.44;5006767;27;100759;-78
2023/01/22 12:23:43;;;;;;;19.40;11.70;;;;;;;3.80;69.62;101342.34;4982942;28;101525;-79
2023/01/22 12:26:22;;;;;;;17.37;11.13;;;;;;;3.79;69.74;101338.00;5001589;28;96960;-78
2023/01/22 12:29:10;;;;;;;16.90;11.47;;;;;;;3.81;68.96;101336.28;5009564;28;97691;-79
2023/01/22 12:31:47;;;;;;;17.97;11.70;;;;;;;3.72;69.21;101318.88;5009857;28;101538;-75
2023/01/22 12:34:20;;;;;;;17.07;11.70;;;;;;;3.84;69.21;101344.13;5008430;28;101811;-78
2023/01/22 12:36:46;;;;;;;18.77;12.57;;;;;;;3.83;69.52;101334.56;4989191;28;97588;-78
2023/01/22 12:39:24;;;;;;;17.53;12.30;;;;;;;3.90;69.10;101340.69;5013793;28;96934;-80
2023/01/22 12:42:05;;;;;;;17.60;11.77;;;;;;;3.87;68.98;101336.38;5009114;28;101600;-78
2023/01/22 12:45:03;;;;;;;21.10;12.53;;;;;;;3.87;68.69;101336.38;5011035;28;101096;-78